• Join FlightAware (Why Join?)
  • Login
  • US Flag 
05:43AM EST


 

Airport Tracker/Info


-or-


 

Live Flight TrackerFlight Track Log ✈ EJA922 ✈ 30-Aug-2013 ✈ KMSN - KHPN

Flight Track Log - Related Links

Times and Time Zones

All times are in EDT time to prevent confusion due to time zone crossing. See the EJA922 flight status page for this flight to view local times or setup timezone preferences in your user account.

Time Position Orientation Groundspeed Altitude Reporting Facility
EDT Latitude Longitude Course Direction KTS MPH feet Rate Location/Type
04:12PM 43.1808 -89.3431 78° East 280 322 3,400  Level Chicago Center
04:13PM 43.1944 -89.2533 78° East 247 284 7,100 3,120 Climbing Chicago Center
04:14PM 43.2244 -89.1758 62° Northeast 232 267 9,900 2,580 Climbing Chicago Center
04:15PM 43.2756 -89.0722 56° Northeast 285 328 12,500 2,160 Climbing Chicago Center
04:16PM 43.3308 -88.9669 54° Northeast 335 386 14,500 1,920 Climbing Chicago Center
04:17PM 43.3917 -88.8514 54° Northeast 366 421 16,500 1,980 Climbing Chicago Center
04:18PM 43.4450 -88.7203 61° Northeast 391 450 18,600 1,800 Climbing Chicago Center
04:19PM 43.4769 -88.5658 74° East 409 471 20,300 1,560 Climbing Chicago Center
04:20PM 43.4994 -88.3900 80° East 438 504 21,900 1,500 Climbing Chicago Center
04:21PM 43.5283 -88.2261 76° East 440 506 23,400 1,380 Climbing Chicago Center
04:22PM 43.5592 -88.0592 76° East 448 516 24,800 1,320 Climbing Chicago Center
04:23PM 43.5950 -87.8564 76° East 467 537 26,200 1,260 Climbing Chicago Center
04:25PM 43.6092 -87.6697 84° East 489 563 27,500 1,140 Climbing Chicago Center
04:26PM 43.6194 -87.4783 86° East 497 572 28,600 1,080 Climbing Chicago Center
04:27PM 43.6286 -87.2881 86° East 503 579 29,800 1,140 Climbing Chicago Center
04:28PM 43.6431 -87.0900 84° East 516 594 31,000 540 Climbing Chicago Center
04:29PM 43.6686 -86.8883 80° East 534 615 31,000 360 Level Chicago Center
04:30PM 43.7061 -86.6378 78° East 551 634 31,800 1,020 Climbing Chicago Center
04:31PM 43.7394 -86.4322 77° East 549 632 33,200 1,200 Climbing Chicago Center
04:32PM 43.7742 -86.2342 76° East 534 615 34,400 840 Climbing Chicago Center
04:33PM 43.7911 -86.0269 83° East 543 625 35,000 480 Climbing Chicago Center
04:34PM 43.7758 -85.8072 95° East 569 655 35,400 780 Climbing Chicago Center
04:35PM 43.7461 -85.5928 101° East 568 654 36,700 1,320 Climbing Chicago Center
04:36PM 43.7128 -85.4256 105° East 564 649 37,900 1,200 Climbing Chicago Center
04:37PM 43.6697 -85.2231 106° East 551 634 39,000 480 Climbing Chicago Center
04:38PM 43.6258 -85.0144 106° East 559 643 39,000  Level Chicago Center
04:39PM 43.5633 -84.7206 106° East 568 654 39,000  Level Minneapolis Center
04:40PM 43.5081 -84.4683 107° East 572 658 39,000  Level Minneapolis Center
04:41PM 43.4625 -84.2581 107° East 573 659 39,000  Level Minneapolis Center
04:42PM 43.4161 -84.0489 107° East 572 658 39,000  Level Minneapolis Center
04:43PM 43.3706 -83.8400 107° East 571 657 39,000  Level Minneapolis Center
04:44PM 43.3239 -83.6317 107° East 572 658 39,000  Level Minneapolis Center
04:45PM 43.2847 -83.4750 109° East 570 656 39,000  Level Cleveland Center
04:46PM 43.2378 -83.2647 107° East 570 656 39,000  Level Cleveland Center
04:47PM 43.1881 -83.0547 108° East 570 656 39,000  Level Cleveland Center
04:48PM 43.1400 -82.8564 108° East 565 650 39,000  Level Cleveland Center
04:49PM 43.0919 -82.6472 107° East 565 650 39,000  Level Cleveland Center
04:50PM 43.0414 -82.4408 108° East 570 656 39,000  Level Cleveland Center
04:51PM 42.9922 -82.2322 108° East 514 592 39,000  Level Cleveland Center
04:52PM 42.9389 -82.0125 108° East 559 643 39,000  Level Cleveland Center
04:53PM 42.8892 -81.8072 108° East 566 651 39,000  Level Cleveland Center
04:54PM 42.8411 -81.6250 110° East 569 655 39,000  Level Cleveland Center
04:55PM 42.7867 -81.4008 108° East 569 655 39,000  Level Cleveland Center
04:56PM 42.7358 -81.1967 109° East 580 667 39,000  Level Cleveland Center
04:57PM 42.6847 -80.9872 108° East 575 662 39,000  Level Cleveland Center
04:58PM 42.6706 -80.7725 95° East 561 646 39,000  Level Cleveland Center
04:59PM 42.6667 -80.5578 91° East 568 654 39,000  Level Cleveland Center
05:00PM 42.6642 -80.3489 91° East 563 648 39,000  Level Cleveland Center
05:01PM 42.6572 -80.1286 92° East 570 656 39,000  Level Cleveland Center
05:02PM 42.6564 -79.9367 90° East 570 656 39,000  Level Cleveland Center
05:03PM 42.6467 -79.7250 94° East 570 656 39,000  Level Cleveland Center
05:04PM 42.6386 -79.5108 93° East 570 656 39,000  Level Cleveland Center
05:05PM 42.6322 -79.2992 92° East 570 656 39,000  Level Cleveland Center
05:06PM 42.6256 -79.0819 92° East 565 650 39,000  Level Cleveland Center
05:07PM 42.6164 -78.8706 93° East 565 650 39,000  Level Cleveland Center
05:08PM 42.6067 -78.6592 94° East 565 650 39,000  Level Cleveland Center
05:09PM 42.5989 -78.4508 93° East 565 650 39,000  Level Cleveland Center
05:10PM 42.5886 -78.2425 94° East 559 643 39,000  Level Cleveland Center
05:11PM 42.5781 -78.0314 94° East 553 636 39,000  Level Cleveland Center
05:12PM 42.5664 -77.8061 94° East 548 631 39,000 -60 Level Cleveland Center
05:13PM 42.5803 -77.6053 85° East 540 621 38,900 -540 Descending Cleveland Center
05:14PM 42.6061 -77.4039 80° East 540 621 38,000 -1,740 Descending Cleveland Center
05:16PM 42.6550 -77.0992 78° East 522 601 34,500 -1,980 Descending Boston Center
05:17PM 42.6861 -76.8981 78° East 533 613 33,000 -780 Descending Boston Center
05:18PM 42.7167 -76.6967 78° East 545 627 33,000 -720 Level Boston Center
05:19PM 42.7469 -76.4950 78° East 545 627 31,600 -1,740 Descending Boston Center
05:20PM 42.7814 -76.2878 77° East 545 627 29,500 -1,560 Descending Boston Center
05:21PM 42.7506 -76.0822 101° East 545 627 28,500 -1,380 Descending Boston Center
05:22PM 42.6706 -75.9108 122° Southeast 517 595 26,900 -1,920 Descending Boston Center
05:23PM 42.5897 -75.7539 125° Southeast 502 578 24,800 -2,100 Descending Boston Center
05:24PM 42.5086 -75.5947 125° Southeast 512 589 22,700 -2,160 Descending Boston Center
05:25PM 42.4294 -75.4417 125° Southeast 512 589 20,500 -1,860 Descending Boston Center
05:26PM 42.3519 -75.2917 125° Southeast 502 578 19,000 -780 Descending Boston Center
05:27PM 42.2764 -75.1422 124° Southeast 491 565 19,000  Level Boston Center
05:28PM 42.2025 -75.0103 127° Southeast 471 542 19,000  Level Boston Center
05:29PM 42.1389 -74.8675 121° Southeast 459 528 19,000 -240 Level Boston Center
05:30PM 42.0772 -74.7225 120° Southeast 446 513 18,600 -1,200 Descending Boston Center
05:31PM 42.0217 -74.5836 118° Southeast 451 519 16,700 -2,100 Descending Boston Center
05:32PM 41.9497 -74.4192 120° Southeast 457 526 14,400 -2,100 Descending Boston Center
05:33PM 41.8975 -74.2919 119° Southeast 445 512 12,500 -1,740 Descending Boston Center
05:34PM 41.8292 -74.1425 121° Southeast 440 506 11,000 -840 Descending Boston Center
05:35PM 41.7622 -74.0125 125° Southeast 423 487 10,900 -60 Descending Boston Center
05:36PM 41.7033 -73.9000 125° Southeast 416 479 10,900 -600 Level Boston Center
05:37PM 41.6081 -73.8450 157° South 333 383 9,700 -1,440 Descending Boston Center
05:38PM 41.5000 -73.8500 182° South 292 336 7,600 -1,620 Descending New York TRACON
05:39PM 41.4167 -73.8667 189° South 282 325 6,100 -1,200 Descending New York TRACON
05:40PM 41.3500 -73.8833 191° South 286 329 5,300 -900 Descending New York TRACON
05:41PM 41.2667 -73.8667 171° South 287 330 4,300 -900 Descending New York TRACON
05:42PM 41.2000 -73.8167 151° Southeast 250 288 3,500 -900 Descending New York TRACON
05:43PM 41.1500 -73.7833 153° Southeast 180 207 2,600 -900 Descending New York TRACON
05:44PM 41.1167 -73.7500 143° Southeast 148 170 1,700 -900 Descending New York TRACON
05:45PM 41.0833 -73.7167 143° Southeast 130 150 800 -900 Descending New York TRACON
05:47PM 41.0667 -73.7000 143° Southeast  Level FlightAware Approximate
05:54PM 41.0669 -73.7076 143° Southeast  Level Estimated